KANE

Anoka County-Blaine (Janes Field) Airport

Minneapolis, Minnesota, USA
METAR KANE 241945Z 09007KT 7SM SCT070 OVC090 M02/M06 A2989
Observed Flight Rules
Feb-24 @ 19:45 UTC (30 minutes ago) Visual Flight Rules
Wind Visibility Clouds
90° at 7 knots 7 miles
  • Scattered at 7,000' AGL
  • Overcast at 9,000' AGL
Temperatures Readings
Current -2°C / 28°F
Dewpoint -6°C / 21°F
Humidity 74%
Altimeter 29.89" Hg
Pressure 1012 hPa
Elevation 278
METAR KANE 241945Z 09007KT 7SM SCT070 OVC090 M02/M06 A2989
Observed Flight Rules
Feb-24 @ 19:45 UTC
(30 minutes ago)
VFR
Wind Visibility
90° at 7 knots 7 miles
Clouds
  • Scattered at 7,000' AGL
  • Overcast at 9,000' AGL
Temperature Dewpoint
-2°C / 28°F -6°C / 21°F
Humidity Altimeter Pressure
74% 29.89" Hg 1012 hPa